Terminal Aerodrome Forecast
Issued by NWS

Current Version | Previous Version | Text Only | Print | Product List | Glossary On
Versions: 1 2 3 4 5 6 7 8 9 10 11 12 13 14 15 16 17 18 19 20 21 22
000
FTUS41 KBGM 310800 AAA
TAFRME
TAF AMD
KRME 310834Z 3109/0106 11003KT 5SM BR FEW050 SCT100
     FM311200 19006KT P6SM SCT035 BKN050
      TEMPO 3112/3116 4SM -SHRA OVC035
     FM311600 24008KT P6SM SCT040 BKN100
     FM010100 VRB03KT P6SM BKN100=

USA.gov is the U.S. government's official web portal to all federal, state and local government web resources and services.